Time;durP1;ratioP1;P1;durP2;ratioP2;P2;SDS_P1;SDS_P2;PMS_P1;PMS_P2;Temp;Humidity;BMP_temperature;BMP_pressure;BME280_temperature;BME280_humidity;BME280_pressure;Samples;Min_cycle;Max_cycle;Signal;HPM_P1;HPM_P2
2022/09/05 18:57:14;;;;;;;6.75;2.30;;;24.40;55.50;;;;;;10098899;29;20057;-56
2022/09/05 19:02:25;;;;;;;6.47;2.72;;;24.40;55.70;;;;;;10085124;29;20667;-57
2022/09/05 19:07:45;;;;;;;6.07;2.70;;;24.50;56.60;;;;;;10087831;29;20053;-54
2022/09/05 19:12:57;;;;;;;6.75;2.10;;;24.40;56.60;;;;;;10069881;29;20508;-56
2022/09/05 19:18:12;;;;;;;5.32;2.00;;;24.50;56.50;;;;;;10084077;29;20045;-55
2022/09/05 19:23:22;;;;;;;4.22;2.17;;;24.50;56.30;;;;;;10070948;29;20044;-55
2022/09/05 19:28:29;;;;;;;3.90;2.13;;;24.50;56.40;;;;;;10085206;29;20485;-55
2022/09/05 19:33:33;;;;;;;4.07;2.33;;;24.50;56.40;;;;;;10086541;29;20381;-56
2022/09/05 19:38:45;;;;;;;5.88;2.67;;;24.50;56.30;;;;;;10068736;29;20037;-55
2022/09/05 19:44:07;;;;;;;4.50;2.30;;;24.50;56.40;;;;;;10069197;29;20094;-56
2022/09/05 19:49:12;;;;;;;4.85;2.40;;;24.50;56.30;;;;;;10068420;29;20045;-54
2022/09/05 19:54:36;;;;;;;4.35;2.35;;;24.50;55.60;;;;;;10087374;29;20445;-54
2022/09/05 19:59:40;;;;;;;2.80;1.63;;;24.50;55.20;;;;;;10090548;29;20045;-54
2022/09/05 20:04:49;;;;;;;4.75;2.40;;;24.50;55.40;;;;;;10072607;29;20040;-55
2022/09/05 20:09:52;;;;;;;3.50;1.80;;;24.50;55.40;;;;;;10088221;29;20045;-54
2022/09/05 20:14:52;;;;;;;2.85;2.40;;;24.50;55.40;;;;;;10070209;29;20047;-55
2022/09/05 20:20:21;;;;;;;4.90;1.65;;;24.50;55.30;;;;;;10071612;29;20124;-54
2022/09/05 20:25:38;;;;;;;3.75;1.75;;;24.50;55.30;;;;;;10086508;29;20072;-55
2022/09/05 20:30:43;;;;;;;3.17;1.70;;;24.40;55.20;;;;;;10075578;29;20037;-53
2022/09/05 20:35:47;;;;;;;4.60;1.88;;;24.50;55.30;;;;;;10089865;29;20528;-54
2022/09/05 20:40:48;;;;;;;3.17;2.00;;;24.50;55.30;;;;;;10091491;29;20473;-55
2022/09/05 20:45:54;;;;;;;2.58;2.00;;;24.50;55.20;;;;;;10092591;29;20064;-53
2022/09/05 20:51:07;;;;;;;1.98;1.40;;;24.40;55.20;;;;;;10094918;29;20049;-52
2022/09/05 20:56:08;;;;;;;3.28;1.75;;;24.40;55.10;;;;;;10088338;29;20557;-53
2022/09/05 21:01:20;;;;;;;4.20;2.35;;;24.40;55.10;;;;;;10128889;29;20071;-54
2022/09/05 21:06:28;;;;;;;3.10;1.98;;;24.40;55.10;;;;;;10112934;29;20040;-54
2022/09/05 21:11:31;;;;;;;2.55;1.58;;;24.40;55.10;;;;;;10129567;29;20551;-53
2022/09/05 21:16:48;;;;;;;3.03;2.53;;;24.40;55.10;;;;;;10129621;29;20032;-55
2022/09/05 21:22:01;;;;;;;5.97;1.63;;;24.40;55.10;;;;;;10113215;29;20036;-54
2022/09/05 21:27:23;;;;;;;2.60;1.75;;;24.40;55.10;;;;;;10112405;29;20036;-54
2022/09/05 21:32:24;;;;;;;2.35;1.80;;;24.40;55.10;;;;;;10112312;29;20041;-55
2022/09/05 21:37:25;;;;;;;2.63;1.60;;;24.40;55.10;;;;;;10128804;29;20643;-54
2022/09/05 21:42:28;;;;;;;3.38;1.52;;;24.40;55.00;;;;;;10128669;29;20028;-53
2022/09/05 21:47:29;;;;;;;3.30;1.70;;;24.40;55.00;;;;;;10138973;29;20052;-53
2022/09/05 21:52:30;;;;;;;2.55;1.83;;;24.40;55.10;;;;;;10128356;29;20037;-54
2022/09/05 21:57:35;;;;;;;2.92;1.83;;;24.40;55.20;;;;;;10111490;29;20196;-54
2022/09/05 22:02:35;;;;;;;3.60;1.88;;;24.40;55.20;;;;;;10111699;29;20032;-55
2022/09/05 22:07:36;;;;;;;4.55;1.92;;;24.40;55.40;;;;;;10127957;29;20044;-55
2022/09/05 22:12:40;;;;;;;2.03;1.50;;;24.40;55.50;;;;;;10127671;29;20060;-54
2022/09/05 22:17:44;;;;;;;2.50;1.60;;;24.40;55.60;;;;;;10127119;29;20056;-52
2022/09/05 22:22:45;;;;;;;3.92;1.95;;;24.40;55.60;;;;;;10127581;29;20039;-55
2022/09/05 22:27:46;;;;;;;2.85;1.80;;;24.40;55.70;;;;;;10127166;29;20055;-55
2022/09/05 22:32:46;;;;;;;2.60;1.58;;;24.40;55.80;;;;;;10126353;29;20037;-55
2022/09/05 22:37:48;;;;;;;2.40;1.80;;;24.40;55.80;;;;;;10108414;29;20492;-54
2022/09/05 22:43:08;;;;;;;2.78;1.90;;;24.40;55.80;;;;;;10123610;29;20029;-54
2022/09/05 22:48:12;;;;;;;2.75;1.75;;;24.30;56.40;;;;;;10118778;29;20041;-55
2022/09/05 22:53:13;;;;;;;1.85;1.55;;;24.40;55.80;;;;;;10113086;29;20071;-53
2022/09/05 22:58:14;;;;;;;1.92;1.60;;;24.30;55.70;;;;;;10125977;29;20456;-54
2022/09/05 23:03:15;;;;;;;3.83;2.10;;;24.40;55.80;;;;;;10109117;29;20032;-54
2022/09/05 23:08:16;;;;;;;2.63;1.50;;;24.30;55.90;;;;;;10125706;29;20044;-54
2022/09/05 23:13:16;;;;;;;1.98;1.77;;;24.40;55.90;;;;;;10125423;29;20072;-55
2022/09/05 23:18:17;;;;;;;3.40;1.70;;;24.40;56.00;;;;;;10125754;29;20097;-53
2022/09/05 23:23:18;;;;;;;2.50;1.60;;;24.40;56.00;;;;;;10124663;29;20043;-55
2022/09/05 23:28:19;;;;;;;2.25;1.80;;;24.40;56.00;;;;;;10108580;29;20040;-54
2022/09/05 23:33:19;;;;;;;2.75;1.95;;;24.30;56.10;;;;;;10125273;29;20069;-53
2022/09/05 23:38:20;;;;;;;1.63;1.50;;;24.30;56.10;;;;;;10125244;29;20044;-54
2022/09/05 23:43:23;;;;;;;2.08;1.73;;;24.30;56.20;;;;;;10124680;29;20120;-54
2022/09/05 23:48:24;;;;;;;1.67;1.55;;;24.30;56.20;;;;;;10135928;29;20041;-53
2022/09/05 23:53:25;;;;;;;2.50;1.83;;;24.30;56.20;;;;;;10124724;29;20128;-54
2022/09/05 23:58:28;;;;;;;1.75;1.60;;;24.30;56.20;;;;;;10077483;29;20061;-55
